createdAt,value
2018-10-02T00:00:12.104Z,24.50
2018-10-02T00:01:12.222Z,20.00
2018-10-02T00:02:12.131Z,18.00
2018-10-02T00:03:12.129Z,19.30
2018-10-02T00:04:12.139Z,21.60
2018-10-02T00:05:12.166Z,17.80
2018-10-02T00:06:12.324Z,20.50
2018-10-02T00:07:12.250Z,19.80
2018-10-02T00:08:12.266Z,19.80
2018-10-02T00:09:12.229Z,22.20
2018-10-02T00:10:12.241Z,23.20
2018-10-02T00:11:12.403Z,21.40
2018-10-02T00:12:12.274Z,22.40
2018-10-02T00:13:12.274Z,23.20
2018-10-02T00:14:12.300Z,24.00
2018-10-02T00:15:12.323Z,20.10
2018-10-02T00:16:12.481Z,18.10
2018-10-02T00:17:12.407Z,20.90
2018-10-02T00:18:12.367Z,24.10
2018-10-02T00:19:12.386Z,26.10
2018-10-02T00:20:12.407Z,23.80
2018-10-02T00:21:12.561Z,23.90
2018-10-02T00:22:12.422Z,19.00
2018-10-02T00:23:12.461Z,23.50
2018-10-02T00:24:12.450Z,21.50
2018-10-02T00:25:12.485Z,24.50
2018-10-02T00:26:12.497Z,26.40
2018-10-02T00:27:12.602Z,23.70
2018-10-02T00:28:12.552Z,22.30
2018-10-02T00:29:12.516Z,18.80
2018-10-02T00:30:12.589Z,24.70
2018-10-02T00:31:12.557Z,21.70
2018-10-02T00:32:12.897Z,19.90
2018-10-02T00:33:12.580Z,21.50
2018-10-02T00:34:12.589Z,25.20
2018-10-02T00:35:12.613Z,25.50
2018-10-02T00:36:12.634Z,23.30
2018-10-02T00:37:12.660Z,24.20
2018-10-02T00:38:13.131Z,21.30
2018-10-02T00:39:12.722Z,23.90
2018-10-02T00:40:12.678Z,21.20
2018-10-02T00:41:12.756Z,24.40
2018-10-02T00:42:12.733Z,26.00
2018-10-02T00:43:12.848Z,29.00
2018-10-02T00:44:12.762Z,27.20
2018-10-02T00:46:12.778Z,25.00
2018-10-02T00:47:12.799Z,26.10
2018-10-02T00:48:12.965Z,28.00
2018-10-02T00:49:12.835Z,26.30
2018-10-02T00:50:12.826Z,26.00
2018-10-02T00:54:12.892Z,23.80
2018-10-02T00:55:12.921Z,21.10
2018-10-02T00:56:12.932Z,23.60
2018-10-02T00:57:12.986Z,25.50
2018-10-02T00:58:13.119Z,22.90
2018-10-02T00:59:13.019Z,23.50
2018-10-02T01:00:13.028Z,20.70
2018-10-02T01:05:13.059Z,21.60
2018-10-02T01:06:13.067Z,26.90
2018-10-02T01:07:13.096Z,23.40
2018-10-02T01:08:13.274Z,21.20
2018-10-02T01:09:13.129Z,25.30
2018-10-02T01:10:13.142Z,23.20
2018-10-02T01:14:13.193Z,26.70
2018-10-02T01:15:13.207Z,27.90
2018-10-02T01:16:13.237Z,25.60
2018-10-02T01:17:13.253Z,24.90
2018-10-02T01:18:13.413Z,30.40
2018-10-02T01:19:13.255Z,28.60
2018-10-02T01:20:13.330Z,24.60
2018-10-02T01:21:13.311Z,26.80
2018-10-02T01:22:13.369Z,26.90
2018-10-02T01:23:19.318Z,32.10
2018-10-02T01:24:13.329Z,30.30
2018-10-02T01:25:13.347Z,25.30
2018-10-02T01:26:13.379Z,29.20
2018-10-02T01:27:13.394Z,25.80
2018-10-02T01:28:13.499Z,26.80
2018-10-02T01:29:13.407Z,28.60
2018-10-02T01:30:13.415Z,27.60
2018-10-02T01:37:13.545Z,29.80
2018-10-02T01:38:13.638Z,29.50
2018-10-02T01:39:13.553Z,27.40
2018-10-02T01:40:13.567Z,30.70
2018-10-02T01:46:13.668Z,28.40
2018-10-02T01:50:13.726Z,30.90
2018-10-02T01:51:13.739Z,27.80
2018-10-02T01:52:13.759Z,28.70
2018-10-02T01:53:13.916Z,27.80
2018-10-02T01:54:13.774Z,28.30
2018-10-02T01:58:13.997Z,28.20
2018-10-02T01:59:13.858Z,29.20
2018-10-02T02:00:13.892Z,30.40
2018-10-02T02:01:13.896Z,30.40
2018-10-02T02:02:13.952Z,29.60
2018-10-02T02:03:14.016Z,32.20
2018-10-02T02:04:13.947Z,40.20
2018-10-02T02:05:13.952Z,40.60
2018-10-02T02:09:14.002Z,34.00
2018-10-02T02:10:14.011Z,34.40
2018-10-02T02:11:14.031Z,32.50
2018-10-02T02:12:14.041Z,31.50
2018-10-02T02:13:14.170Z,34.40
2018-10-02T02:14:14.070Z,30.70
2018-10-02T02:22:14.200Z,43.00
2018-10-02T02:23:14.245Z,43.00
2018-10-02T02:27:14.279Z,40.60
2018-10-02T02:28:14.492Z,46.60
2018-10-02T02:29:14.306Z,46.10
2018-10-02T02:35:14.387Z,51.40
2018-10-02T02:39:14.433Z,49.90
2018-10-02T02:40:14.441Z,45.90
2018-10-02T02:41:14.497Z,44.60
2018-10-02T02:42:14.475Z,47.70
2018-10-02T02:48:14.729Z,43.60
2018-10-02T02:49:14.591Z,43.40
2018-10-02T02:50:14.611Z,42.40
2018-10-02T02:51:14.601Z,42.90
2018-10-02T02:52:14.627Z,40.50
2018-10-02T02:53:14.694Z,41.00
2018-10-02T02:54:14.669Z,44.10
2018-10-02T02:55:14.677Z,41.90
2018-10-02T02:56:14.702Z,41.20
2018-10-02T02:57:14.694Z,41.70
2018-10-02T02:58:14.767Z,40.60
2018-10-02T02:59:14.726Z,38.80
2018-10-02T03:00:14.739Z,38.20
2018-10-02T03:10:14.884Z,33.10
2018-10-02T03:11:14.918Z,34.20
2018-10-02T03:12:14.915Z,34.40
2018-10-02T03:13:14.976Z,32.30
2018-10-02T03:14:14.952Z,32.70
2018-10-02T03:19:15.006Z,33.50
2018-10-02T03:20:15.040Z,35.50
2018-10-02T03:21:15.044Z,35.60
2018-10-02T03:22:15.077Z,34.80
2018-10-02T03:23:15.237Z,33.40
2018-10-02T03:24:15.089Z,34.40
2018-10-02T03:25:15.108Z,32.70
2018-10-02T03:26:15.117Z,33.60
2018-10-02T03:27:15.141Z,34.20
2018-10-02T03:29:15.169Z,36.00
2018-10-02T03:30:15.181Z,36.10
2018-10-02T03:31:15.198Z,37.40
2018-10-02T03:32:15.226Z,37.90
2018-10-02T03:33:15.310Z,39.80
2018-10-02T03:39:15.309Z,40.60
2018-10-02T03:40:15.305Z,40.40
2018-10-02T03:41:15.344Z,41.50
2018-10-02T03:42:15.349Z,42.30
2018-10-02T03:43:15.472Z,40.40
2018-10-02T03:44:15.382Z,40.50
2018-10-02T03:45:15.387Z,43.00
2018-10-02T03:46:15.395Z,40.30
2018-10-02T03:47:15.430Z,43.30
2018-10-02T03:48:15.527Z,41.90
2018-10-02T03:49:15.455Z,43.40
2018-10-02T03:50:15.472Z,46.30
2018-10-02T03:51:15.489Z,44.80
2018-10-02T03:52:15.476Z,46.00
2018-10-02T03:59:15.759Z,46.30
2018-10-02T04:00:15.603Z,47.40
2018-10-02T04:01:15.627Z,47.50
2018-10-02T04:03:15.652Z,48.10
2018-10-02T04:04:15.725Z,47.80
2018-10-02T04:05:15.724Z,50.20
2018-10-02T04:06:15.737Z,50.80
2018-10-02T04:07:15.724Z,51.10
2018-10-02T04:08:15.713Z,52.20
2018-10-02T04:09:15.775Z,51.60
2018-10-02T04:10:15.740Z,53.80
2018-10-02T04:11:15.861Z,54.40
2018-10-02T04:12:15.766Z,52.60
2018-10-02T04:13:15.850Z,54.20
2018-10-02T04:22:16.071Z,63.90
2018-10-02T04:23:15.921Z,60.40
2018-10-02T04:24:15.963Z,58.60
2018-10-02T04:25:15.976Z,61.90
2018-10-02T04:26:16.022Z,56.90
2018-10-02T04:27:16.117Z,56.20
2018-10-02T04:28:16.037Z,56.10
2018-10-02T04:29:16.023Z,57.10
2018-10-02T04:30:16.045Z,60.40
2018-10-02T04:31:16.072Z,61.40
2018-10-02T04:32:16.117Z,58.20
2018-10-02T04:33:16.104Z,65.70
2018-10-02T04:42:16.196Z,77.70
2018-10-02T04:43:16.379Z,79.70
2018-10-02T04:44:16.247Z,76.30
2018-10-02T04:45:16.243Z,76.80
2018-10-02T04:46:16.317Z,80.20
2018-10-02T04:47:16.305Z,83.30
2018-10-02T04:48:16.326Z,81.40
2018-10-02T04:49:16.328Z,84.60
2018-10-02T04:50:16.346Z,81.80
2018-10-02T04:51:16.337Z,80.90
2018-10-02T04:52:16.395Z,79.40
2018-10-02T04:53:16.434Z,84.50
2018-10-02T04:54:16.578Z,84.20
2018-10-02T04:55:16.405Z,82.20
2018-10-02T04:56:16.420Z,88.80
2018-10-02T04:57:16.432Z,88.80
2018-10-02T05:03:16.517Z,83.50
2018-10-02T05:04:16.626Z,74.70
2018-10-02T05:05:16.548Z,77.60
2018-10-02T05:06:16.557Z,71.40
2018-10-02T05:07:16.563Z,78.60
2018-10-02T05:08:16.636Z,76.10
2018-10-02T05:09:16.730Z,70.70
2018-10-02T05:10:16.655Z,71.10
2018-10-02T05:11:16.614Z,69.90
2018-10-02T05:12:16.630Z,66.00
2018-10-02T05:13:16.642Z,66.60
2018-10-02T05:14:16.820Z,66.10
2018-10-02T05:15:16.676Z,63.90
2018-10-02T05:16:16.684Z,65.30
2018-10-02T05:17:16.697Z,67.60
2018-10-02T05:18:16.708Z,62.00
2018-10-02T05:19:16.844Z,62.40
2018-10-02T05:20:16.741Z,63.20
2018-10-02T05:24:16.969Z,59.10
2018-10-02T05:25:16.862Z,64.10
2018-10-02T05:26:16.852Z,60.10
2018-10-02T05:27:16.866Z,60.50
2018-10-02T05:28:16.859Z,61.20
2018-10-02T05:29:16.912Z,64.20
2018-10-02T05:30:16.900Z,64.90
2018-10-02T05:31:16.895Z,61.70
2018-10-02T05:32:16.922Z,64.90
2018-10-02T05:33:16.938Z,60.00
2018-10-02T05:34:17.103Z,60.60
2018-10-02T05:35:17.149Z,61.40
2018-10-02T05:36:16.968Z,57.50
2018-10-02T05:37:16.973Z,66.40
2018-10-02T05:38:16.998Z,58.50
2018-10-02T05:39:17.073Z,60.30
2018-10-02T05:40:17.042Z,65.40
2018-10-02T05:46:17.108Z,64.60
2018-10-02T05:47:17.138Z,78.10
2018-10-02T05:48:17.130Z,69.80
2018-10-02T05:49:17.213Z,77.10
2018-10-02T05:50:17.171Z,78.00
2018-10-02T05:51:17.194Z,75.00
2018-10-02T05:52:17.203Z,70.30
2018-10-02T05:53:17.226Z,73.70
2018-10-02T05:54:17.332Z,71.70
2018-10-02T05:55:17.247Z,65.00
2018-10-02T05:56:17.245Z,71.00
2018-10-02T05:57:17.267Z,68.70
2018-10-02T05:58:17.344Z,67.00
2018-10-02T05:59:17.441Z,79.10
2018-10-02T06:00:17.305Z,64.60
2018-10-02T06:07:17.396Z,58.10
2018-10-02T06:08:17.473Z,51.90
2018-10-02T06:09:17.612Z,53.20
2018-10-02T06:10:17.432Z,51.40
2018-10-02T06:11:17.507Z,54.20
2018-10-02T06:12:17.500Z,43.50
2018-10-02T06:13:17.497Z,42.00
2018-10-02T06:14:17.612Z,41.00
2018-10-02T06:15:17.539Z,44.30
2018-10-02T06:16:17.536Z,40.60
2018-10-02T06:17:17.562Z,36.40
2018-10-02T06:18:17.550Z,42.30
2018-10-02T06:19:17.725Z,41.90
2018-10-02T06:20:17.588Z,42.50
2018-10-02T06:21:17.620Z,49.30
2018-10-02T06:22:17.611Z,47.30
2018-10-02T06:31:17.786Z,53.80
2018-10-02T06:32:17.843Z,58.60
2018-10-02T06:33:17.772Z,55.80
2018-10-02T06:34:17.798Z,61.50
2018-10-02T06:35:17.813Z,63.00
2018-10-02T06:36:17.818Z,69.80
2018-10-02T06:37:17.991Z,66.10
2018-10-02T06:38:17.992Z,61.00
2018-10-02T06:39:17.861Z,61.90
2018-10-02T06:40:17.863Z,56.70
2018-10-02T06:41:17.882Z,59.50
2018-10-02T06:42:18.101Z,55.10
2018-10-02T06:43:17.894Z,60.60
2018-10-02T06:44:17.930Z,62.60
2018-10-02T06:53:18.091Z,50.90
2018-10-02T06:56:18.094Z,62.90
2018-10-02T06:57:18.223Z,64.60
2018-10-02T06:58:18.117Z,59.20
2018-10-02T06:59:18.142Z,59.20
2018-10-02T07:00:18.214Z,53.00
2018-10-02T07:01:18.165Z,51.20
2018-10-02T07:02:18.227Z,51.90
2018-10-02T07:03:18.194Z,54.80
2018-10-02T07:04:18.217Z,57.40
2018-10-02T07:05:18.225Z,49.40
2018-10-02T07:06:18.239Z,53.90
2018-10-02T07:07:18.358Z,51.20
2018-10-02T07:17:18.543Z,50.30
2018-10-02T07:18:18.392Z,53.80
2018-10-02T07:19:18.407Z,55.30
2018-10-02T07:20:18.417Z,52.10
2018-10-02T07:21:18.472Z,52.20
2018-10-02T07:22:18.637Z,49.20
2018-10-02T07:23:18.469Z,47.50
2018-10-02T07:24:18.478Z,48.60
2018-10-02T07:25:18.518Z,47.90
2018-10-02T07:26:18.510Z,44.00
2018-10-02T07:27:18.838Z,43.00
2018-10-02T07:28:18.601Z,51.40
2018-10-02T07:29:18.580Z,47.70
2018-10-02T07:43:18.777Z,53.50
2018-10-02T07:44:18.784Z,59.20
2018-10-02T07:45:18.776Z,55.60
2018-10-02T07:46:18.811Z,62.80
2018-10-02T07:47:18.854Z,61.20
2018-10-02T07:48:18.897Z,63.90
2018-10-02T07:49:18.944Z,67.60
2018-10-02T07:50:18.862Z,67.40
2018-10-02T08:03:19.505Z,75.60
2018-10-02T08:04:19.133Z,72.60
2018-10-02T08:05:19.121Z,71.60
2018-10-02T08:06:19.091Z,81.30
2018-10-02T08:07:19.107Z,76.60
2018-10-02T08:08:19.166Z,67.60
2018-10-02T08:09:19.131Z,66.40
2018-10-02T08:10:19.145Z,74.60
2018-10-02T08:11:19.148Z,66.80
2018-10-02T08:19:19.297Z,57.40
2018-10-02T08:20:19.271Z,56.20
2018-10-02T08:21:19.292Z,55.50
2018-10-02T08:22:19.355Z,53.40
2018-10-02T08:23:19.318Z,52.60
2018-10-02T08:24:19.455Z,51.80
2018-10-02T08:25:19.406Z,51.20
2018-10-02T08:26:19.371Z,52.20
2018-10-02T08:27:19.502Z,50.00
2018-10-02T08:28:19.389Z,53.10
2018-10-02T08:29:19.407Z,54.20
2018-10-02T08:30:19.689Z,50.80
2018-10-02T08:31:19.447Z,53.10
2018-10-02T08:32:19.432Z,54.00
2018-10-02T08:33:19.476Z,53.70
2018-10-02T08:43:19.722Z,58.40
2018-10-02T08:48:19.677Z,60.60
2018-10-02T08:49:19.833Z,62.30
2018-10-02T08:50:19.821Z,63.80
2018-10-02T09:00:19.851Z,55.90
2018-10-02T09:01:19.947Z,55.30
2018-10-02T09:02:19.873Z,57.80
2018-10-02T09:03:19.899Z,52.20
2018-10-02T09:04:19.926Z,55.60
2018-10-02T09:05:19.934Z,59.20
2018-10-02T09:06:20.087Z,53.20
2018-10-02T09:18:20.092Z,48.50
2018-10-02T09:19:20.104Z,44.60
2018-10-02T09:20:20.117Z,42.20
2018-10-02T09:21:20.279Z,42.60
2018-10-02T09:22:20.163Z,35.90
2018-10-02T09:23:20.171Z,40.20
2018-10-02T09:24:20.226Z,35.60
2018-10-02T09:25:20.222Z,36.80
2018-10-02T09:26:20.386Z,36.60
2018-10-02T09:39:20.426Z,35.00
2018-10-02T09:41:20.522Z,36.90
2018-10-02T09:42:20.524Z,38.40
2018-10-02T09:43:20.692Z,33.30
2018-10-02T09:44:20.526Z,31.80
2018-10-02T09:45:20.564Z,34.50
2018-10-02T10:02:20.852Z,36.80
2018-10-02T10:03:20.977Z,34.90
2018-10-02T10:04:20.897Z,36.70
2018-10-02T10:05:20.860Z,36.40
2018-10-02T10:09:20.911Z,35.40
2018-10-02T10:10:21.106Z,35.30
2018-10-02T10:11:20.979Z,35.00
2018-10-02T10:12:20.986Z,36.80
2018-10-02T10:13:20.990Z,33.40
2018-10-02T10:14:21.001Z,35.10
2018-10-02T10:15:21.163Z,39.10
2018-10-02T10:16:21.047Z,32.60
2018-10-02T10:17:21.105Z,34.10
2018-10-02T10:18:21.061Z,30.70
2018-10-02T10:19:21.101Z,36.80
2018-10-02T10:20:21.145Z,34.60
2018-10-02T10:21:21.145Z,35.30
2018-10-02T10:22:21.197Z,32.80
2018-10-02T10:23:21.159Z,31.90
2018-10-02T10:24:21.188Z,34.30
2018-10-02T10:25:21.347Z,32.90
2018-10-02T10:26:21.208Z,32.20
2018-10-02T10:27:21.261Z,30.10
2018-10-02T10:28:21.260Z,30.80
2018-10-02T10:29:21.269Z,32.20
2018-10-02T10:30:21.569Z,28.80
2018-10-02T10:31:21.281Z,30.50
2018-10-02T10:32:21.313Z,28.10
2018-10-02T10:33:21.390Z,30.20
2018-10-02T10:34:21.402Z,28.50
2018-10-02T10:35:21.413Z,28.60
2018-10-02T10:36:21.383Z,30.30
2018-10-02T10:37:21.405Z,26.70
2018-10-02T10:38:21.401Z,28.00
2018-10-02T10:39:21.433Z,24.70
2018-10-02T10:40:21.669Z,27.80
2018-10-02T10:41:21.593Z,26.90
2018-10-02T10:42:21.486Z,26.00
2018-10-02T10:43:21.508Z,27.10
2018-10-02T10:44:21.527Z,27.80
2018-10-02T10:45:21.692Z,25.10
2018-10-02T10:46:21.616Z,25.50
2018-10-02T10:47:21.582Z,24.20
2018-10-02T10:48:21.603Z,24.00
2018-10-02T10:49:21.607Z,25.90
2018-10-02T10:50:21.745Z,23.90
2018-10-02T10:51:21.673Z,24.00
2018-10-02T10:52:21.711Z,25.40
2018-10-02T10:53:21.721Z,26.00
2018-10-02T10:54:21.730Z,24.50
2018-10-02T10:55:21.903Z,28.20
2018-10-02T10:56:21.820Z,25.90
2018-10-02T10:57:21.761Z,24.50
2018-10-02T10:58:21.820Z,24.20
2018-10-02T10:59:21.803Z,25.30
2018-10-02T11:00:22.025Z,23.50
2018-10-02T11:01:21.847Z,24.60
2018-10-02T11:02:21.862Z,22.70
2018-10-02T11:03:21.901Z,23.10
2018-10-02T11:04:21.954Z,23.30
2018-10-02T11:05:21.960Z,21.80
2018-10-02T11:06:21.943Z,22.60
2018-10-02T11:07:21.962Z,24.60
2018-10-02T11:08:21.989Z,22.10
2018-10-02T11:09:22.026Z,21.60
2018-10-02T11:10:22.119Z,21.30
2018-10-02T11:11:22.046Z,21.80
2018-10-02T11:12:22.042Z,20.00
2018-10-02T11:13:22.056Z,19.80
2018-10-02T11:14:22.075Z,20.20
2018-10-02T11:15:22.266Z,20.00
2018-10-02T11:16:22.115Z,20.50
2018-10-02T11:17:22.136Z,19.90
2018-10-02T11:18:22.168Z,19.30
2018-10-02T11:19:22.178Z,18.30
2018-10-02T11:20:22.288Z,18.50
2018-10-02T11:21:22.242Z,21.00
2018-10-02T11:22:22.247Z,18.30
2018-10-02T11:23:22.257Z,17.70
2018-10-02T11:24:22.264Z,19.80
2018-10-02T11:25:22.406Z,16.90
2018-10-02T11:26:22.300Z,19.90
2018-10-02T11:27:22.438Z,17.90
2018-10-02T11:28:22.380Z,18.10
2018-10-02T11:29:22.362Z,19.70
2018-10-02T11:30:22.408Z,19.70
2018-10-02T11:31:22.509Z,20.00
2018-10-02T11:32:22.558Z,20.20
2018-10-02T11:33:22.464Z,18.40
2018-10-02T11:34:22.483Z,19.70
2018-10-02T11:35:22.610Z,20.60
2018-10-02T11:36:22.506Z,22.30
2018-10-02T11:37:22.750Z,22.50
2018-10-02T11:38:22.556Z,22.50
2018-10-02T11:39:22.567Z,21.60
2018-10-02T11:40:22.615Z,22.50
2018-10-02T11:41:22.622Z,22.90
2018-10-02T11:42:22.784Z,22.20
2018-10-02T11:43:22.719Z,23.70
2018-10-02T11:44:22.703Z,22.10
2018-10-02T11:47:22.890Z,23.20
2018-10-02T11:48:22.753Z,25.10
2018-10-02T11:49:22.882Z,25.10
2018-10-02T11:50:22.784Z,24.70
2018-10-02T11:51:22.833Z,25.40
2018-10-02T11:52:22.948Z,21.20
2018-10-02T11:53:22.856Z,21.70
2018-10-02T11:54:22.889Z,29.60
2018-10-02T11:55:22.934Z,22.10
2018-10-02T11:56:22.941Z,24.00
2018-10-02T11:57:23.113Z,22.30
2018-10-02T11:58:22.969Z,23.80
2018-10-02T11:59:22.986Z,19.60
2018-10-02T12:00:23.035Z,20.70
2018-10-02T12:01:23.359Z,21.30
2018-10-02T12:02:23.058Z,22.70
2018-10-02T12:03:23.186Z,20.40
2018-10-02T12:04:23.080Z,19.10
2018-10-02T12:05:23.110Z,19.20
2018-10-02T12:06:23.194Z,19.50
2018-10-02T12:07:23.155Z,20.00
2018-10-02T12:08:23.191Z,18.80
2018-10-02T12:09:23.200Z,18.00
2018-10-02T12:10:23.207Z,16.90
2018-10-02T12:11:23.342Z,19.90
2018-10-02T12:12:23.313Z,17.90
2018-10-02T12:13:23.380Z,19.10
2018-10-02T12:14:23.596Z,19.90
2018-10-02T12:15:23.416Z,20.90
2018-10-02T12:16:23.416Z,17.90
2018-10-02T12:17:23.383Z,18.30
2018-10-02T12:18:23.399Z,19.80
2018-10-02T12:19:23.425Z,20.00
2018-10-02T12:20:23.467Z,18.90
2018-10-02T12:21:23.478Z,16.70
2018-10-02T12:22:23.586Z,18.20
2018-10-02T12:23:23.528Z,18.00
2018-10-02T12:24:23.557Z,19.90
2018-10-02T12:25:23.568Z,19.40
2018-10-02T12:26:23.605Z,18.70
2018-10-02T12:27:23.695Z,16.90
2018-10-02T12:28:23.645Z,16.50
2018-10-02T12:29:23.685Z,15.40
2018-10-02T12:30:28.122Z,17.80
2018-10-02T12:31:23.821Z,15.90
2018-10-02T12:32:23.776Z,16.20
2018-10-02T12:33:23.769Z,16.40
2018-10-02T12:34:23.794Z,16.60
2018-10-02T12:35:23.983Z,15.90
2018-10-02T12:36:23.851Z,15.10
2018-10-02T12:37:23.889Z,13.90
2018-10-02T12:38:24.007Z,14.40
2018-10-02T12:39:23.999Z,14.20
2018-10-02T12:40:27.426Z,13.90
2018-10-02T12:41:23.984Z,13.80
2018-10-02T12:42:24.032Z,14.20
2018-10-02T12:43:24.065Z,13.40
2018-10-02T12:44:24.091Z,13.80
2018-10-02T12:45:24.148Z,15.80
2018-10-02T12:46:24.133Z,15.00
2018-10-02T12:47:24.160Z,13.90
2018-10-02T12:48:24.280Z,13.10
2018-10-02T12:49:24.207Z,13.30
2018-10-02T12:50:24.361Z,13.40
2018-10-02T12:51:24.284Z,12.80
2018-10-02T12:52:24.313Z,12.60
2018-10-02T12:53:24.435Z,13.10
2018-10-02T12:54:24.354Z,11.70
2018-10-02T12:55:24.444Z,13.40
2018-10-02T12:56:24.411Z,11.30
2018-10-02T12:57:24.443Z,12.70
2018-10-02T12:58:24.458Z,12.30
2018-10-02T12:59:24.597Z,13.00
2018-10-02T13:00:24.584Z,13.00
2018-10-02T13:01:24.558Z,14.50
2018-10-02T13:02:24.591Z,12.90
2018-10-02T13:03:24.718Z,12.40
2018-10-02T13:04:24.641Z,13.80
2018-10-02T13:05:24.658Z,12.80
2018-10-02T13:06:24.700Z,11.30
2018-10-02T13:07:24.711Z,11.70
2018-10-02T13:08:24.839Z,10.20
2018-10-02T13:09:24.776Z,12.00
2018-10-02T13:10:24.812Z,13.30
2018-10-02T13:11:24.836Z,12.70
2018-10-02T13:12:24.859Z,13.50
2018-10-02T13:13:24.945Z,13.80
2018-10-02T13:14:24.954Z,14.20
2018-10-02T13:15:24.931Z,13.70
2018-10-02T13:16:25.016Z,14.50
2018-10-02T13:17:25.030Z,13.40
2018-10-02T13:18:25.175Z,11.50
2018-10-02T13:19:25.060Z,11.30
2018-10-02T13:20:25.095Z,12.40
2018-10-02T13:21:25.107Z,12.10
2018-10-02T13:22:25.125Z,12.40
2018-10-02T13:23:25.259Z,13.30
2018-10-02T13:24:25.195Z,13.50
2018-10-02T13:25:25.313Z,12.00
2018-10-02T13:26:25.245Z,11.40
2018-10-02T13:28:25.427Z,11.10
2018-10-02T13:29:25.316Z,11.10
2018-10-02T13:30:25.341Z,11.70
2018-10-02T13:31:25.346Z,10.50
2018-10-02T13:32:25.525Z,11.50
2018-10-02T13:33:25.459Z,10.80
2018-10-02T13:34:25.470Z,11.50
2018-10-02T13:35:25.465Z,10.50
2018-10-02T13:36:25.484Z,10.80
2018-10-02T13:37:25.513Z,9.30
2018-10-02T13:38:25.582Z,8.90
2018-10-02T13:39:25.563Z,10.40
2018-10-02T13:40:25.579Z,9.60
2018-10-02T13:41:25.614Z,11.00
2018-10-02T13:42:25.640Z,9.30
2018-10-02T13:43:25.713Z,10.70
2018-10-02T13:44:25.697Z,8.90
2018-10-02T13:45:25.713Z,8.40
2018-10-02T13:46:25.764Z,8.20
2018-10-02T13:47:25.754Z,8.50
2018-10-02T13:48:25.870Z,8.00
2018-10-02T13:49:25.871Z,7.00
2018-10-02T13:50:25.925Z,9.10
2018-10-02T13:51:25.915Z,8.50
2018-10-02T13:52:25.907Z,9.60
2018-10-02T13:53:26.048Z,9.60
2018-10-02T13:54:25.970Z,9.40
2018-10-02T13:55:25.994Z,8.70
2018-10-02T13:56:26.040Z,7.70
2018-10-02T13:57:26.058Z,9.40
2018-10-02T13:58:26.181Z,7.70
2018-10-02T13:59:26.124Z,8.30
2018-10-02T14:00:26.121Z,8.50
2018-10-02T14:01:26.269Z,8.40
2018-10-02T14:02:26.192Z,8.30
2018-10-02T14:03:26.290Z,8.40
2018-10-02T14:04:26.247Z,8.30
2018-10-02T14:05:26.320Z,7.30
2018-10-02T14:06:26.326Z,7.90
2018-10-02T14:07:26.338Z,8.10
2018-10-02T14:08:26.458Z,8.00
2018-10-02T14:09:26.416Z,7.80
2018-10-02T14:10:26.441Z,7.00
2018-10-02T14:11:26.483Z,6.80
2018-10-02T14:12:26.519Z,7.30
2018-10-02T14:13:26.563Z,8.30
2018-10-02T14:14:26.562Z,7.80
2018-10-02T14:15:26.622Z,7.40
2018-10-02T14:16:26.600Z,6.80
2018-10-02T14:17:26.632Z,11.30
2018-10-02T14:18:26.725Z,7.20
2018-10-02T14:19:26.709Z,7.60
2018-10-02T14:20:26.748Z,7.60
2018-10-02T14:21:26.797Z,7.50
2018-10-02T14:22:26.807Z,7.60
2018-10-02T14:23:26.943Z,7.40
2018-10-02T14:24:26.876Z,7.60
2018-10-02T14:25:26.865Z,9.40
2018-10-02T14:33:27.217Z,8.20
2018-10-02T14:34:27.176Z,8.50
2018-10-02T14:35:27.211Z,8.20
2018-10-02T14:36:27.282Z,7.60
2018-10-02T14:37:27.265Z,8.60
2018-10-02T14:38:27.329Z,7.50
2018-10-02T14:39:27.298Z,9.10
2018-10-02T14:40:27.306Z,8.20
2018-10-02T14:41:27.367Z,9.10
2018-10-02T14:42:27.391Z,8.50
2018-10-02T14:43:27.511Z,8.90
2018-10-02T14:44:27.434Z,8.10
2018-10-02T14:45:27.463Z,7.60
2018-10-02T14:46:27.522Z,7.60
2018-10-02T14:47:27.529Z,7.30
2018-10-02T14:48:27.639Z,7.60
2018-10-02T14:49:27.591Z,8.00
2018-10-02T14:50:27.612Z,8.00
2018-10-02T14:51:27.671Z,6.70
2018-10-02T14:52:27.663Z,6.50
2018-10-02T14:53:27.835Z,7.20
2018-10-02T14:54:27.739Z,6.70
2018-10-02T14:55:27.763Z,8.20
2018-10-02T14:56:27.807Z,7.10
2018-10-02T14:57:27.826Z,7.70
2018-10-02T14:58:27.902Z,7.30
2018-10-02T15:07:28.167Z,11.90
2018-10-02T15:08:28.181Z,9.80
2018-10-02T15:09:28.161Z,10.50
2018-10-02T15:15:28.316Z,9.20
2018-10-02T15:16:28.369Z,10.30
2018-10-02T15:17:28.397Z,11.20
2018-10-02T15:18:28.523Z,8.60
2018-10-02T15:19:28.464Z,9.30
2018-10-02T15:20:28.466Z,9.60
2018-10-02T15:30:28.771Z,9.10
2018-10-02T15:31:28.761Z,9.10
2018-10-02T15:32:28.790Z,7.10
2018-10-02T15:33:28.812Z,6.80
2018-10-02T15:34:28.907Z,8.00
2018-10-02T15:58:54.704Z,5.00
2018-10-02T15:59:54.768Z,4.90
2018-10-02T16:00:54.835Z,4.70
2018-10-02T16:01:54.926Z,5.50
2018-10-02T16:02:54.868Z,5.10
2018-10-02T16:03:54.904Z,5.50
2018-10-02T16:04:54.907Z,5.20
2018-10-02T16:05:54.952Z,4.60
2018-10-02T16:06:55.073Z,4.40
2018-10-02T16:07:55.023Z,4.70
2018-10-02T16:08:55.071Z,4.20
2018-10-02T16:09:55.080Z,4.10
2018-10-02T16:10:55.126Z,6.10
2018-10-02T16:11:55.249Z,4.50
2018-10-02T16:12:55.176Z,4.40
2018-10-02T16:21:04.696Z,3.80
2018-10-02T16:27:55.660Z,4.10
2018-10-02T16:30:39.329Z,5.90
2018-10-02T16:31:39.408Z,5.30
2018-10-02T16:32:39.391Z,5.10
2018-10-02T16:33:39.404Z,5.10
2018-10-02T16:34:48.983Z,5.00
2018-10-02T16:35:39.681Z,7.40
2018-10-02T16:36:39.556Z,4.80
2018-10-02T16:37:39.541Z,5.40
2018-10-02T16:38:39.578Z,5.30
2018-10-02T16:39:39.602Z,5.30
2018-10-02T16:40:39.711Z,5.20
2018-10-02T16:41:39.649Z,5.40
2018-10-02T16:42:39.671Z,5.30
2018-10-02T16:43:39.709Z,5.90
2018-10-02T16:44:39.741Z,7.50
2018-10-02T16:45:39.863Z,5.90
2018-10-02T16:46:39.814Z,5.00
2018-10-02T16:47:39.820Z,6.00
2018-10-02T16:48:39.847Z,5.80
2018-10-02T16:49:39.925Z,5.40
2018-10-02T16:50:40.022Z,5.70
2018-10-02T16:51:39.938Z,5.20
2018-10-02T16:52:39.974Z,5.60
2018-10-02T16:53:39.973Z,5.50
2018-10-02T16:54:40.036Z,6.00
2018-10-02T16:55:40.145Z,6.20
2018-10-02T16:56:40.112Z,7.60
2018-10-02T16:57:40.096Z,5.90
2018-10-02T16:58:40.115Z,7.50
2018-10-02T16:59:40.156Z,6.10
2018-10-02T17:00:40.283Z,6.20
2018-10-02T17:01:40.190Z,6.10
2018-10-02T17:02:40.286Z,6.00
2018-10-02T17:03:40.257Z,6.50
2018-10-02T17:04:40.310Z,6.50
2018-10-02T17:05:40.424Z,5.20
2018-10-02T17:06:40.332Z,5.70
2018-10-02T17:07:40.365Z,5.40
2018-10-02T17:08:40.394Z,5.50
2018-10-02T17:09:40.414Z,5.60
2018-10-02T17:10:40.561Z,5.60
2018-10-02T17:11:40.474Z,4.70
2018-10-02T17:12:40.499Z,5.50
2018-10-02T17:13:40.559Z,5.30
2018-10-02T17:14:40.558Z,5.10
2018-10-02T17:15:40.687Z,5.70
2018-10-02T17:16:40.642Z,5.30
2018-10-02T17:17:40.659Z,5.20
2018-10-02T17:18:40.680Z,5.20
2018-10-02T17:19:40.718Z,5.10
2018-10-02T17:20:40.857Z,6.40
2018-10-02T17:21:40.753Z,5.80
2018-10-02T17:22:40.785Z,6.10
2018-10-02T17:23:40.828Z,10.50
2018-10-02T17:24:40.971Z,10.80
2018-10-02T17:25:40.927Z,8.00
2018-10-02T17:26:40.905Z,10.30
2018-10-02T17:27:40.937Z,13.60
2018-10-02T17:28:40.977Z,12.60
2018-10-02T17:29:40.999Z,15.50
2018-10-02T17:30:41.099Z,19.70
2018-10-02T17:31:41.047Z,18.00
2018-10-02T17:32:41.128Z,21.80
2018-10-02T17:33:41.072Z,15.30
2018-10-02T17:34:41.125Z,12.20
2018-10-02T17:35:41.223Z,13.00
2018-10-02T17:36:41.160Z,12.70
2018-10-02T17:37:41.185Z,12.90
2018-10-02T17:38:41.213Z,13.90
2018-10-02T17:39:41.271Z,13.40
2018-10-02T17:40:41.374Z,15.40
2018-10-02T17:41:41.285Z,14.30
2018-10-02T17:42:41.289Z,13.60
2018-10-02T17:43:41.325Z,13.60
2018-10-02T17:44:41.343Z,13.80
2018-10-02T17:45:41.471Z,13.90
2018-10-02T17:46:41.377Z,13.70
2018-10-02T17:47:41.393Z,13.50
2018-10-02T17:48:41.449Z,14.70
2018-10-02T17:49:41.469Z,14.00
2018-10-02T17:50:41.594Z,15.00
2018-10-02T17:51:41.503Z,13.90
2018-10-02T17:52:41.521Z,15.20
2018-10-02T17:53:41.563Z,13.10
2018-10-02T17:54:41.549Z,12.30
2018-10-02T17:55:41.739Z,12.90
2018-10-02T17:56:41.621Z,13.90
2018-10-02T17:57:41.613Z,13.90
2018-10-02T17:58:41.670Z,15.90
2018-10-02T17:59:41.723Z,16.40
2018-10-02T18:00:41.740Z,14.40
2018-10-02T18:01:41.707Z,15.00
2018-10-02T18:02:41.735Z,16.20
2018-10-02T18:03:41.768Z,17.20
2018-10-02T18:04:41.777Z,17.70
2018-10-02T18:05:41.896Z,16.30
2018-10-02T18:06:41.837Z,19.20